Time;durP1;ratioP1;P1;durP2;ratioP2;P2;SDS_P1;SDS_P2;PMS_P1;PMS_P2;Temp;Humidity;BMP_temperature;BMP_pressure;BME280_temperature;BME280_humidity;BME280_pressure;Samples;Min_cycle;Max_cycle;Signal;HPM_P1;HPM_P2
2022/10/20 00:02:12;;;;;;;28.42;15.10;;;;;;;8.84;100.00;101460.75;10360351;28;20076;-78
2022/10/20 00:07:12;;;;;;;28.20;14.63;;;;;;;8.63;100.00;101458.56;10352927;28;20430;-78
2022/10/20 00:12:13;;;;;;;21.55;12.90;;;;;;;8.48;100.00;101450.56;10353621;28;20034;-78
2022/10/20 00:17:13;;;;;;;23.67;14.00;;;;;;;8.44;100.00;101448.56;10360690;28;20033;-78
2022/10/20 00:22:14;;;;;;;30.38;16.13;;;;;;;8.41;100.00;101437.94;10365556;28;20041;-78
2022/10/20 00:27:14;;;;;;;29.45;17.83;;;;;;;8.33;100.00;101434.84;10363440;28;20042;-78
2022/10/20 00:32:15;;;;;;;29.80;16.17;;;;;;;8.32;100.00;101434.72;10362878;28;20046;-78
2022/10/20 00:37:15;;;;;;;26.45;16.15;;;;;;;8.40;100.00;101415.25;10364239;28;20095;-77
2022/10/20 00:42:17;;;;;;;29.67;16.73;;;;;;;8.38;100.00;101416.88;10364247;28;20038;-78
2022/10/20 00:47:37;;;;;;;25.17;16.37;;;;;;;8.37;100.00;101409.84;10344098;28;20405;-78
2022/10/20 00:52:38;;;;;;;33.90;17.98;;;;;;;8.28;100.00;101409.25;10361497;28;20046;-77
2022/10/20 00:57:39;;;;;;;28.48;16.42;;;;;;;8.26;100.00;101411.75;10362678;28;20577;-78
2022/10/20 01:02:39;;;;;;;29.80;19.48;;;;;;;8.36;100.00;101406.34;10362125;28;20048;-78
2022/10/20 01:07:40;;;;;;;45.95;19.58;;;;;;;8.37;100.00;101394.19;10362738;28;20128;-78
2022/10/20 01:13:00;;;;;;;28.00;16.50;;;;;;;8.45;100.00;101371.22;10363526;28;20128;-78
2022/10/20 01:18:00;;;;;;;29.35;17.50;;;;;;;8.43;100.00;101365.91;10361848;28;20513;-78
2022/10/20 01:23:22;;;;;;;37.53;19.85;;;;;;;8.54;100.00;101344.84;10363366;28;20121;-79
2022/10/20 01:28:33;;;;;;;33.73;18.77;;;;;;;8.48;100.00;101356.66;10347754;28;20046;-80
2022/10/20 01:33:55;;;;;;;32.47;17.92;;;;;;;8.52;100.00;101342.16;10362042;28;20030;-80
2022/10/20 01:39:01;;;;;;;31.88;21.00;;;;;;;8.76;100.00;101323.63;10342761;28;20127;-79
2022/10/20 01:44:02;;;;;;;37.28;20.10;;;;;;;8.73;100.00;101313.88;10347351;28;20064;-79
2022/10/20 01:49:03;;;;;;;39.67;18.37;;;;;;;8.81;100.00;101303.94;10337360;28;20041;-80
2022/10/20 01:54:04;;;;;;;34.58;18.95;;;;;;;8.87;100.00;101292.97;10343875;28;20331;-79
2022/10/20 01:59:25;;;;;;;34.10;20.60;;;;;;;9.02;100.00;101303.44;10358394;28;20698;-79
2022/10/20 02:05:06;;;;;;;32.77;18.97;;;;;;;9.02;100.00;101298.22;10360986;28;20372;-80
2022/10/20 02:10:17;;;;;;;30.45;21.08;;;;;;;9.08;100.00;101302.09;10361044;28;20042;-79
2022/10/20 02:15:23;;;;;;;35.97;19.08;;;;;;;9.18;100.00;101284.38;10359836;28;20117;-80
2022/10/20 02:20:24;;;;;;;31.38;16.65;;;;;;;9.23;100.00;101290.78;10342062;28;20045;-79
2022/10/20 02:25:25;;;;;;;31.77;17.70;;;;;;;9.19;100.00;101291.41;10342531;28;20037;-80
2022/10/20 02:30:26;;;;;;;32.45;18.90;;;;;;;9.28;100.00;101285.84;10358839;28;20044;-80
2022/10/20 02:35:29;;;;;;;32.55;17.85;;;;;;;9.20;100.00;101278.44;10358884;28;20200;-79
2022/10/20 02:40:29;;;;;;;29.50;18.15;;;;;;;9.24;100.00;101259.53;10356888;28;20088;-79
2022/10/20 02:45:30;;;;;;;30.92;17.33;;;;;;;9.22;100.00;101258.56;10320197;28;20122;-79
2022/10/20 02:50:30;;;;;;;37.13;19.27;;;;;;;9.23;100.00;101249.00;10357898;28;20054;-79
2022/10/20 02:55:31;;;;;;;37.15;18.63;;;;;;;9.25;100.00;101236.91;10359622;28;20091;-79
2022/10/20 03:00:31;;;;;;;41.00;18.13;;;;;;;9.48;100.00;101232.13;10358147;28;20128;-78
2022/10/20 03:05:32;;;;;;;31.65;15.88;;;;;;;9.49;100.00;101215.66;10344595;28;20107;-78
2022/10/20 03:10:34;;;;;;;26.25;16.05;;;;;;;9.52;100.00;101211.50;10357397;28;20042;-79
2022/10/20 03:15:34;;;;;;;30.70;16.20;;;;;;;9.59;100.00;101202.31;10358061;28;20410;-78
2022/10/20 03:20:35;;;;;;;25.23;13.43;;;;;;;9.55;100.00;101195.09;10357180;28;20125;-78
2022/10/20 03:25:36;;;;;;;25.80;15.30;;;;;;;9.59;100.00;101204.03;10357180;28;20030;-79
2022/10/20 03:30:36;;;;;;;32.42;17.13;;;;;;;9.63;100.00;101182.47;10358332;28;20556;-78
2022/10/20 03:35:37;;;;;;;24.85;13.38;;;;;;;9.72;100.00;101172.53;10330362;28;20034;-79
2022/10/20 03:40:37;;;;;;;24.77;13.25;;;;;;;9.78;100.00;101158.91;10356972;28;20414;-77
2022/10/20 03:45:38;;;;;;;28.52;13.85;;;;;;;9.81;100.00;101162.59;10357997;28;20085;-77
2022/10/20 03:50:39;;;;;;;26.73;14.15;;;;;;;9.82;100.00;101158.25;10355466;28;20050;-76
2022/10/20 03:55:40;;;;;;;22.63;13.20;;;;;;;9.84;100.00;101154.94;10349014;28;20048;-78
2022/10/20 04:00:40;;;;;;;26.95;15.95;;;;;;;9.79;100.00;101134.56;10353257;28;20030;-77
2022/10/20 04:05:41;;;;;;;23.98;12.98;;;;;;;9.88;100.00;101137.69;10364630;28;20088;-78
2022/10/20 04:10:42;;;;;;;25.10;11.70;;;;;;;9.92;100.00;101134.41;10362966;28;20038;-78
2022/10/20 04:15:42;;;;;;;20.48;12.88;;;;;;;9.98;100.00;101134.75;10365884;28;20131;-78
2022/10/20 04:20:42;;;;;;;17.02;12.30;;;;;;;9.97;100.00;101146.03;10363004;28;20115;-78
2022/10/20 04:25:47;;;;;;;19.98;12.10;;;;;;;9.95;100.00;101125.84;10363851;28;20658;-78
2022/10/20 04:30:48;;;;;;;19.70;12.13;;;;;;;9.93;100.00;101112.69;10363653;28;20045;-78
2022/10/20 04:35:48;;;;;;;35.97;21.50;;;;;;;9.92;100.00;101104.78;10359961;28;20494;-78
2022/10/20 04:40:56;;;;;;;22.42;11.90;;;;;;;9.89;100.00;101120.28;10362869;28;20034;-80
2022/10/20 04:46:01;;;;;;;21.65;13.02;;;;;;;9.94;100.00;101090.94;10352826;28;20113;-75
2022/10/20 04:51:11;;;;;;;18.73;11.73;;;;;;;9.98;100.00;101098.16;10362700;28;20034;-77
2022/10/20 04:56:17;;;;;;;23.35;10.27;;;;;;;9.95;100.00;101089.25;10345567;28;20057;-77
2022/10/20 05:01:18;;;;;;;19.00;11.85;;;;;;;9.99;100.00;101084.25;10333322;28;20470;-76
2022/10/20 05:06:20;;;;;;;19.38;10.68;;;;;;;9.89;100.00;101091.53;10360682;28;20045;-77
2022/10/20 05:11:21;;;;;;;18.77;11.60;;;;;;;9.84;100.00;101076.50;10354503;28;20060;-78
2022/10/20 05:16:21;;;;;;;17.67;11.20;;;;;;;9.78;100.00;101056.97;10359718;28;20076;-77
2022/10/20 05:21:27;;;;;;;19.58;11.98;;;;;;;9.81;100.00;101025.75;10324731;28;20052;-77
2022/10/20 05:26:28;;;;;;;17.52;10.85;;;;;;;9.79;100.00;101050.91;10344517;28;20484;-77
2022/10/20 05:31:29;;;;;;;19.30;11.47;;;;;;;9.75;100.00;101039.41;10344620;28;20057;-78
2022/10/20 05:36:29;;;;;;;16.75;9.57;;;;;;;9.77;100.00;101049.94;10342026;28;20514;-77
2022/10/20 05:41:31;;;;;;;18.92;12.48;;;;;;;9.80;100.00;101047.47;10362063;28;20038;-77
2022/10/20 05:46:33;;;;;;;18.10;9.70;;;;;;;9.82;100.00;101035.41;10358530;28;20490;-77
2022/10/20 05:51:34;;;;;;;17.98;11.40;;;;;;;9.87;100.00;101033.03;10342669;28;20046;-78
2022/10/20 05:56:35;;;;;;;18.52;12.32;;;;;;;9.83;100.00;101043.34;10341369;28;20042;-77
2022/10/20 06:01:46;;;;;;;30.70;12.30;;;;;;;9.80;100.00;101042.25;10359897;28;20029;-77
2022/10/20 06:06:47;;;;;;;25.90;11.05;;;;;;;9.76;100.00;101043.81;10358519;28;20120;-78
2022/10/20 06:11:48;;;;;;;34.80;21.08;;;;;;;9.76;100.00;101049.06;10355848;28;20123;-80
2022/10/20 06:16:50;;;;;;;25.63;13.75;;;;;;;9.81;100.00;101059.75;10356200;28;20172;-79
2022/10/20 06:21:51;;;;;;;20.52;10.68;;;;;;;9.79;100.00;101064.91;10356867;28;20046;-81
2022/10/20 06:26:51;;;;;;;16.00;12.18;;;;;;;9.80;100.00;101077.16;10358522;28;20497;-79
2022/10/20 06:31:52;;;;;;;20.83;12.93;;;;;;;9.76;100.00;101090.88;10356556;28;20060;-80
2022/10/20 06:36:52;;;;;;;21.27;10.80;;;;;;;9.84;100.00;101073.88;10338360;28;20494;-80
2022/10/20 06:41:53;;;;;;;18.45;11.45;;;;;;;9.83;100.00;101079.03;10359299;28;20033;-80
2022/10/20 06:46:54;;;;;;;15.73;9.82;;;;;;;9.92;100.00;101095.19;10354293;28;20099;-77
2022/10/20 06:51:54;;;;;;;25.33;10.55;;;;;;;9.95;100.00;101084.03;10358681;28;20037;-78
2022/10/20 06:56:55;;;;;;;16.33;11.05;;;;;;;10.08;100.00;101093.41;10356617;28;20076;-78
2022/10/20 07:01:55;;;;;;;16.10;9.23;;;;;;;10.19;100.00;101076.56;10358593;28;20117;-78
2022/10/20 07:06:56;;;;;;;17.30;9.07;;;;;;;10.24;100.00;101059.41;10353570;28;20486;-78
2022/10/20 07:11:56;;;;;;;12.20;9.05;;;;;;;10.32;100.00;101053.66;10359340;28;20474;-80
2022/10/20 07:17:00;;;;;;;12.90;8.77;;;;;;;10.40;100.00;101055.00;10338915;28;20045;-78
2022/10/20 07:22:00;;;;;;;15.55;10.18;;;;;;;10.58;100.00;101076.88;10357114;28;20065;-78
2022/10/20 07:27:01;;;;;;;16.15;9.40;;;;;;;10.73;100.00;101070.59;10362973;28;20064;-79
2022/10/20 07:32:02;;;;;;;15.55;9.25;;;;;;;10.76;100.00;101076.00;10370971;28;20482;-79
2022/10/20 07:37:02;;;;;;;11.88;7.90;;;;;;;10.96;100.00;101073.47;10373368;28;20042;-78
2022/10/20 07:42:03;;;;;;;12.20;7.40;;;;;;;11.13;98.61;101069.06;10370481;28;20375;-78
2022/10/20 07:47:03;;;;;;;17.55;8.80;;;;;;;11.24;98.90;101059.09;10370239;28;20050;-78
2022/10/20 07:52:07;;;;;;;13.65;7.82;;;;;;;11.36;97.35;101038.72;10371154;28;20041;-78
2022/10/20 07:57:07;;;;;;;17.92;8.40;;;;;;;11.49;96.80;101049.78;10370182;28;20129;-79
2022/10/20 08:02:09;;;;;;;13.82;7.53;;;;;;;11.57;96.96;101037.94;10372149;28;20042;-79
2022/10/20 08:07:10;;;;;;;12.90;8.68;;;;;;;11.57;96.18;101043.19;10355432;28;20113;-79
2022/10/20 08:12:11;;;;;;;11.63;6.45;;;;;;;11.65;95.32;101039.19;10371569;28;20034;-81
2022/10/20 08:17:11;;;;;;;12.52;8.40;;;;;;;11.79;94.30;101044.16;10371157;28;20061;-81
2022/10/20 08:22:12;;;;;;;12.88;8.45;;;;;;;12.12;93.00;101029.09;10371108;28;20125;-79
2022/10/20 08:27:12;;;;;;;13.48;7.78;;;;;;;12.28;90.62;101011.38;10367204;28;20131;-79
2022/10/20 08:32:13;;;;;;;11.50;6.80;;;;;;;12.62;90.36;101024.19;10370217;28;20054;-81
2022/10/20 08:37:13;;;;;;;13.35;7.82;;;;;;;13.15;87.93;101043.81;10369255;28;20118;-82
2022/10/20 08:42:14;;;;;;;13.65;6.80;;;;;;;13.53;84.65;101041.84;10363501;28;20123;-81
2022/10/20 08:47:26;;;;;;;13.63;7.03;;;;;;;13.26;86.08;101054.75;10346540;28;20379;-81
2022/10/20 08:52:27;;;;;;;9.80;7.13;;;;;;;13.36;86.20;101067.41;10327473;28;20544;-81
2022/10/20 08:57:30;;;;;;;19.17;8.52;;;;;;;13.15;87.07;101044.72;10362376;28;20103;-79
2022/10/20 09:02:30;;;;;;;9.93;6.85;;;;;;;13.02;88.34;101043.34;10345139;28;20116;-78
2022/10/20 09:07:34;;;;;;;15.90;8.43;;;;;;;12.95;89.84;101028.16;10361406;28;20434;-81
2022/10/20 09:12:35;;;;;;;21.60;10.20;;;;;;;12.95;88.79;101020.28;10346530;28;20033;-80
2022/10/20 09:17:35;;;;;;;17.05;8.68;;;;;;;12.98;90.00;101020.41;10345172;28;20148;-81
2022/10/20 09:22:36;;;;;;;15.95;8.23;;;;;;;13.02;88.23;101003.94;10361170;28;20041;-78
2022/10/20 09:27:38;;;;;;;13.43;8.27;;;;;;;13.16;88.66;101017.59;10360852;28;20439;-79
2022/10/20 09:32:39;;;;;;;9.88;6.82;;;;;;;13.22;88.17;100986.31;10361274;28;20046;-82
2022/10/20 09:37:40;;;;;;;11.07;8.65;;;;;;;13.03;88.46;100981.16;10322860;28;20133;-82
2022/10/20 09:42:51;;;;;;;15.80;7.35;;;;;;;12.82;93.48;101039.00;10340053;28;20429;-81
2022/10/20 09:47:53;;;;;;;17.48;9.80;;;;;;;12.77;93.56;101054.53;10360115;28;20034;-81
2022/10/20 09:52:54;;;;;;;12.85;8.10;;;;;;;12.72;96.23;101056.09;10345607;28;20406;-80
2022/10/20 09:57:54;;;;;;;15.32;10.55;;;;;;;12.72;94.91;101035.06;10345507;28;20056;-81
2022/10/20 10:03:24;;;;;;;17.65;11.43;;;;;;;12.97;94.00;101025.56;10327960;28;20390;-80
2022/10/20 10:08:27;;;;;;;19.92;9.77;;;;;;;13.16;91.68;101012.34;10335080;28;20069;-81
2022/10/20 10:13:29;;;;;;;13.20;8.90;;;;;;;13.15;92.31;101041.19;10345677;28;20034;-80
2022/10/20 10:18:30;;;;;;;15.50;8.50;;;;;;;13.03;93.00;101038.97;10343078;28;20382;-81
2022/10/20 10:23:32;;;;;;;15.75;9.50;;;;;;;12.97;94.74;101046.59;10359977;28;20044;-80
2022/10/20 10:28:37;;;;;;;17.05;9.15;;;;;;;13.14;94.38;101031.53;10327926;28;20136;-81
2022/10/20 10:33:38;;;;;;;14.70;10.38;;;;;;;13.33;93.55;101015.63;10359794;28;20133;-82
2022/10/20 10:38:38;;;;;;;13.52;9.38;;;;;;;13.44;92.96;101007.31;10342641;28;20559;-81
2022/10/20 10:43:46;;;;;;;18.50;10.43;;;;;;;13.43;92.68;101008.13;10360296;28;20034;-81
2022/10/20 10:49:22;;;;;;;18.80;9.98;;;;;;;13.31;94.01;101022.56;10343860;28;20077;-81
2022/10/20 10:54:27;;;;;;;19.10;11.80;;;;;;;13.18;95.02;101010.66;10318641;28;20096;-80
2022/10/20 10:59:34;;;;;;;17.45;12.07;;;;;;;13.04;97.11;101015.41;10359658;28;20042;-80
2022/10/20 11:04:54;;;;;;;17.95;12.02;;;;;;;12.95;99.60;101003.59;10341026;28;20390;-80
2022/10/20 11:10:13;;;;;;;18.60;11.95;;;;;;;12.93;99.73;100999.19;10361491;28;20050;-78
2022/10/20 11:15:16;;;;;;;27.55;13.05;;;;;;;12.97;100.00;100994.97;10343197;28;20490;-78
2022/10/20 11:20:44;;;;;;;16.85;10.73;;;;;;;12.78;100.00;101009.06;10360579;28;20065;-78
2022/10/20 11:25:48;;;;;;;19.98;11.60;;;;;;;12.65;100.00;100991.94;10357196;28;20537;-85
2022/10/20 11:30:49;;;;;;;34.80;15.48;;;;;;;12.27;100.00;100993.84;10342500;28;20037;-89
2022/10/20 11:35:56;;;;;;;22.23;14.43;;;;;;;12.03;100.00;100998.06;10341406;28;20042;-92
2022/10/20 11:41:17;;;;;;;43.83;19.38;;;;;;;11.96;100.00;100982.88;10343073;28;20541;-91
2022/10/20 11:46:21;;;;;;;26.63;18.33;;;;;;;11.98;100.00;100969.84;10342677;28;20038;-90
2022/10/20 11:51:24;;;;;;;27.25;17.75;;;;;;;12.04;100.00;100970.13;10343267;28;20496;-90
2022/10/20 11:56:57;;;;;;;30.42;21.48;;;;;;;12.26;100.00;100940.44;10359361;28;20041;-90
2022/10/20 12:02:14;;;;;;;30.63;19.33;;;;;;;12.41;100.00;100940.22;10357306;28;20056;-85
2022/10/20 12:07:25;;;;;;;29.48;17.02;;;;;;;12.49;100.00;100916.88;10357461;28;20034;-84
2022/10/20 12:12:54;;;;;;;24.33;14.85;;;;;;;12.66;100.00;100909.69;10344711;28;20446;-85
2022/10/20 12:18:05;;;;;;;24.48;15.27;;;;;;;13.34;100.00;100932.41;10361429;28;20478;-84
2022/10/20 12:23:06;;;;;;;19.90;13.52;;;;;;;14.43;100.00;100925.69;10349389;28;20054;-83
2022/10/20 12:28:18;;;;;;;18.35;10.95;;;;;;;15.38;98.29;100922.50;10348026;28;20124;-85
2022/10/20 12:33:33;;;;;;;18.45;12.00;;;;;;;15.90;94.47;100910.72;10366387;28;20080;-87
2022/10/20 12:38:33;;;;;;;18.40;11.77;;;;;;;15.12;97.30;100913.81;10363428;28;20045;-89
2022/10/20 12:44:04;;;;;;;16.55;11.77;;;;;;;14.73;100.00;100907.38;10364223;28;20120;-88
2022/10/20 12:49:05;;;;;;;17.92;12.68;;;;;;;14.68;100.00;100906.31;10379208;28;20046;-87
2022/10/20 12:54:26;;;;;;;27.20;12.30;;;;;;;15.02;100.00;100896.84;10359038;28;20452;-83
2022/10/20 12:59:26;;;;;;;17.85;12.30;;;;;;;15.57;98.17;100883.44;10362279;28;20060;-85
2022/10/20 13:04:57;;;;;;;19.48;12.70;;;;;;;15.14;99.96;100887.50;10363236;28;20041;-83
2022/10/20 13:09:58;;;;;;;19.30;12.43;;;;;;;15.22;100.00;100884.22;10365238;28;20406;-85
2022/10/20 13:15:02;;;;;;;30.63;14.32;;;;;;;15.81;98.39;100879.69;10360824;28;20034;-86
2022/10/20 13:20:19;;;;;;;17.13;11.65;;;;;;;18.39;86.41;100880.72;10344689;28;20096;-85
2022/10/20 13:25:52;;;;;;;14.05;11.73;;;;;;;20.32;76.11;100873.28;10356191;28;20400;-89
2022/10/20 13:31:14;;;;;;;11.32;9.60;;;;;;;19.41;74.35;100867.06;10317420;28;20512;-88
2022/10/20 13:36:26;;;;;;;16.05;10.95;;;;;;;17.64;83.89;100846.78;10362405;28;20379;-88
2022/10/20 13:41:29;;;;;;;21.33;12.05;;;;;;;17.32;86.52;100844.44;10362124;28;20038;-90
2022/10/20 13:46:36;;;;;;;18.25;12.82;;;;;;;16.81;89.65;100831.03;10359815;28;20073;-89
2022/10/20 13:51:52;;;;;;;17.33;10.40;;;;;;;17.50;90.27;100828.00;10344801;28;20038;-89
2022/10/20 13:56:53;;;;;;;19.08;10.68;;;;;;;17.64;88.16;100837.94;10342933;28;20383;-87
2022/10/20 14:01:56;;;;;;;17.77;10.18;;;;;;;19.79;79.80;100829.41;10344531;28;20037;-87
2022/10/20 14:07:03;;;;;;;17.40;11.07;;;;;;;21.95;68.28;100812.69;10360067;28;20045;-88
2022/10/20 14:12:10;;;;;;;15.60;10.20;;;;;;;21.78;67.44;100819.81;10345456;28;20505;-82
2022/10/20 14:17:18;;;;;;;13.43;9.88;;;;;;;21.88;66.51;100815.38;10343327;28;20088;-85
2022/10/20 14:22:21;;;;;;;13.93;9.05;;;;;;;21.01;69.72;100816.06;10343064;28;20065;-87
2022/10/20 14:27:25;;;;;;;14.23;8.40;;;;;;;20.91;70.16;100808.94;10359463;28;20046;-84
2022/10/20 14:32:26;;;;;;;15.25;9.50;;;;;;;20.96;69.14;100809.84;10344191;28;20030;-87
2022/10/20 14:37:34;;;;;;;15.68;8.05;;;;;;;20.92;68.54;100805.38;10338042;28;20456;-85
2022/10/20 14:42:35;;;;;;;13.98;7.00;;;;;;;21.28;68.29;100801.06;10358718;28;20048;-87
2022/10/20 14:47:38;;;;;;;12.20;7.30;;;;;;;21.25;67.47;100801.06;10341993;28;20045;-87
2022/10/20 14:52:40;;;;;;;11.35;6.63;;;;;;;20.83;67.60;100793.81;10358900;28;20545;-85
2022/10/20 14:57:42;;;;;;;16.23;7.60;;;;;;;19.93;71.03;100789.75;10360739;28;20448;-84
2022/10/20 15:02:44;;;;;;;20.20;8.00;;;;;;;18.02;79.86;100791.00;10340645;28;20076;-85
2022/10/20 15:07:45;;;;;;;15.73;9.77;;;;;;;17.35;85.62;100778.34;10324614;28;20556;-85
2022/10/20 15:12:49;;;;;;;17.38;9.05;;;;;;;16.52;90.07;100783.72;10360201;28;20042;-85
2022/10/20 15:18:02;;;;;;;14.88;10.13;;;;;;;16.38;92.62;100780.78;10341940;28;20494;-85
2022/10/20 15:23:08;;;;;;;19.08;8.90;;;;;;;16.40;92.27;100786.97;10340044;28;20050;-85
2022/10/20 15:28:32;;;;;;;11.88;7.60;;;;;;;16.20;92.72;100783.00;10358968;28;20133;-85
2022/10/20 15:33:32;;;;;;;18.02;9.27;;;;;;;15.69;95.60;100779.97;10355480;28;20056;-83
2022/10/20 15:38:33;;;;;;;27.30;10.68;;;;;;;15.29;98.89;100782.50;10357794;28;20048;-81
2022/10/20 15:43:33;;;;;;;15.60;7.93;;;;;;;15.11;100.00;100796.03;10307259;28;20041;-80
2022/10/20 15:48:34;;;;;;;17.17;9.75;;;;;;;14.91;100.00;100783.19;10358083;28;20034;-82
2022/10/20 15:53:34;;;;;;;13.07;8.63;;;;;;;14.71;100.00;100779.09;10346550;28;20473;-80
2022/10/20 15:58:35;;;;;;;16.92;10.38;;;;;;;14.51;100.00;100771.47;10332251;28;20064;-81
2022/10/20 16:03:39;;;;;;;28.85;9.60;;;;;;;14.29;100.00;100760.28;10364553;28;20042;-81
2022/10/20 16:08:43;;;;;;;17.13;9.77;;;;;;;14.06;100.00;100749.94;10360089;28;20940;-81
2022/10/20 16:13:43;;;;;;;30.52;13.07;;;;;;;13.73;100.00;100750.63;10364640;28;20046;-81
2022/10/20 16:18:44;;;;;;;25.73;11.68;;;;;;;13.60;100.00;100754.59;10363728;28;20037;-81
2022/10/20 16:23:45;;;;;;;17.02;12.50;;;;;;;13.45;100.00;100754.97;10363740;28;20045;-81
2022/10/20 16:28:46;;;;;;;19.90;11.63;;;;;;;13.27;100.00;100756.91;10362027;28;20084;-81
2022/10/20 16:33:46;;;;;;;20.25;12.80;;;;;;;13.02;100.00;100767.47;10364457;28;20137;-81
2022/10/20 16:38:47;;;;;;;23.20;12.50;;;;;;;12.88;100.00;100769.59;10359946;28;20034;-81
2022/10/20 16:43:47;;;;;;;27.88;16.30;;;;;;;12.89;100.00;100765.25;10346278;28;20121;-82
2022/10/20 16:48:48;;;;;;;19.27;13.77;;;;;;;12.72;100.00;100772.47;10352703;28;20040;-82
2022/10/20 16:53:48;;;;;;;24.48;15.05;;;;;;;12.59;100.00;100776.41;10342390;28;20046;-82
2022/10/20 16:58:49;;;;;;;22.05;12.57;;;;;;;12.51;100.00;100772.56;10360316;28;20130;-82
2022/10/20 17:03:50;;;;;;;23.45;14.68;;;;;;;12.49;100.00;100767.25;10311590;28;20046;-82
2022/10/20 17:08:51;;;;;;;35.73;16.53;;;;;;;12.40;100.00;100752.06;10361834;28;20069;-79
2022/10/20 17:13:52;;;;;;;22.08;16.17;;;;;;;12.45;100.00;100746.97;10325013;28;20096;-83
2022/10/20 17:18:53;;;;;;;25.33;17.08;;;;;;;12.45;100.00;100744.34;10344552;28;20124;-82
2022/10/20 17:23:53;;;;;;;36.08;17.42;;;;;;;12.43;100.00;100732.91;10359418;28;20042;-82
2022/10/20 17:28:54;;;;;;;23.85;15.23;;;;;;;12.47;100.00;100745.31;10354511;28;20037;-82
2022/10/20 17:33:56;;;;;;;24.13;16.10;;;;;;;12.53;100.00;100745.53;10345186;28;20033;-82
2022/10/20 17:38:59;;;;;;;22.65;16.13;;;;;;;12.50;100.00;100744.53;10344276;28;20067;-82
2022/10/20 17:44:00;;;;;;;18.60;13.15;;;;;;;12.40;100.00;100759.03;10344746;28;20057;-85
2022/10/20 17:49:00;;;;;;;19.88;14.93;;;;;;;12.24;100.00;100757.56;10338926;28;20125;-83
2022/10/20 17:54:01;;;;;;;24.85;15.93;;;;;;;12.18;100.00;100751.22;10325495;28;20045;-84
2022/10/20 17:59:03;;;;;;;20.45;15.68;;;;;;;12.14;100.00;100737.91;10326106;28;20108;-83
2022/10/20 18:04:11;;;;;;;24.95;15.13;;;;;;;12.11;100.00;100732.56;10325094;28;20038;-82
2022/10/20 18:09:13;;;;;;;25.33;15.30;;;;;;;12.19;100.00;100737.28;10340992;28;20092;-86
2022/10/20 18:14:15;;;;;;;21.88;15.80;;;;;;;12.24;100.00;100721.69;10361113;28;20069;-87
2022/10/20 18:19:17;;;;;;;28.95;16.08;;;;;;;12.23;100.00;100714.66;10318237;28;20039;-81
2022/10/20 18:24:17;;;;;;;24.02;15.90;;;;;;;12.26;100.00;100719.16;10330946;28;20454;-82
2022/10/20 18:29:18;;;;;;;24.48;14.48;;;;;;;12.29;100.00;100727.13;10358767;28;20045;-81
2022/10/20 18:34:19;;;;;;;26.85;17.30;;;;;;;12.31;100.00;100715.84;10358368;28;20137;-82
2022/10/20 18:39:20;;;;;;;22.77;16.48;;;;;;;12.30;100.00;100718.44;10356246;28;20073;-82
2022/10/20 18:44:20;;;;;;;25.50;16.73;;;;;;;12.20;100.00;100719.78;10339907;28;20041;-81
2022/10/20 18:49:21;;;;;;;22.45;13.57;;;;;;;12.17;100.00;100706.56;10360457;28;20419;-81
2022/10/20 18:54:23;;;;;;;39.55;14.93;;;;;;;12.07;100.00;100693.91;10359176;28;20121;-82
2022/10/20 18:59:23;;;;;;;28.58;17.25;;;;;;;11.97;100.00;100696.16;10326153;28;20045;-84
2022/10/20 19:04:24;;;;;;;37.75;17.70;;;;;;;11.99;100.00;100704.97;10331266;28;20430;-84
2022/10/20 19:09:24;;;;;;;22.60;16.05;;;;;;;11.93;100.00;100706.47;10354261;28;20052;-80
2022/10/20 19:14:25;;;;;;;26.15;13.05;;;;;;;11.81;100.00;100704.25;10341661;28;20072;-81
2022/10/20 19:19:26;;;;;;;23.50;16.30;;;;;;;11.71;100.00;100709.13;10357570;28;20064;-80
2022/10/20 19:24:27;;;;;;;45.17;17.13;;;;;;;11.64;100.00;100699.22;10354651;28;20049;-80
2022/10/20 19:29:28;;;;;;;27.73;16.42;;;;;;;11.52;100.00;100685.63;10356494;28;20042;-80
2022/10/20 19:34:38;;;;;;;22.77;14.55;;;;;;;11.45;100.00;100687.09;10357120;28;20046;-81
2022/10/20 19:39:40;;;;;;;26.38;16.00;;;;;;;11.38;100.00;100669.34;10339613;28;20046;-81
2022/10/20 19:44:41;;;;;;;46.72;19.55;;;;;;;11.28;100.00;100668.03;10321512;28;20034;-80
2022/10/20 19:49:44;;;;;;;21.58;14.55;;;;;;;11.14;100.00;100663.13;10324653;28;20042;-80
2022/10/20 19:54:45;;;;;;;32.20;17.70;;;;;;;11.09;100.00;100656.78;10355918;28;20034;-81
2022/10/20 19:59:45;;;;;;;33.30;16.70;;;;;;;10.99;100.00;100649.38;10340070;28;20482;-81
2022/10/20 20:04:46;;;;;;;32.55;17.02;;;;;;;10.90;100.00;100654.22;10355426;28;20033;-82
2022/10/20 20:09:46;;;;;;;49.28;18.92;;;;;;;10.84;100.00;100642.66;10348463;28;20096;-79
2022/10/20 20:14:47;;;;;;;52.95;19.88;;;;;;;10.66;100.00;100641.88;10343171;28;20042;-79
2022/10/20 20:19:48;;;;;;;101.10;22.30;;;;;;;10.55;100.00;100657.13;10339135;28;20054;-78
2022/10/20 20:24:49;;;;;;;33.95;17.67;;;;;;;10.57;100.00;100645.88;10347000;28;20088;-79
2022/10/20 20:29:50;;;;;;;30.23;17.23;;;;;;;10.55;100.00;100647.53;10322194;28;20038;-79
2022/10/20 20:34:50;;;;;;;26.52;18.08;;;;;;;10.60;100.00;100641.59;10350544;28;20076;-78
2022/10/20 20:39:51;;;;;;;33.63;17.67;;;;;;;10.62;100.00;100634.72;10365979;28;20128;-78
2022/10/20 20:44:52;;;;;;;28.88;16.63;;;;;;;10.78;100.00;100637.16;10364194;28;20129;-78
2022/10/20 20:49:52;;;;;;;34.25;21.25;;;;;;;10.82;100.00;100631.22;10365407;28;20048;-79
2022/10/20 20:54:53;;;;;;;40.42;20.48;;;;;;;10.75;100.00;100618.72;10365384;28;20038;-79
2022/10/20 20:59:53;;;;;;;39.58;20.50;;;;;;;10.78;100.00;100637.16;10364014;28;20123;-78
2022/10/20 21:04:54;;;;;;;38.30;22.13;;;;;;;10.77;100.00;100630.13;10363469;28;20053;-78
2022/10/20 21:09:54;;;;;;;34.80;17.95;;;;;;;10.74;100.00;100632.63;10364638;28;20034;-79
2022/10/20 21:14:55;;;;;;;37.42;19.27;;;;;;;10.70;100.00;100638.56;10363005;28;20455;-79
2022/10/20 21:19:55;;;;;;;45.90;23.00;;;;;;;10.77;100.00;100647.59;10364199;28;20125;-79
2022/10/20 21:24:56;;;;;;;34.60;17.80;;;;;;;10.83;100.00;100642.63;10362047;28;20041;-78
2022/10/20 21:29:56;;;;;;;35.88;20.52;;;;;;;10.87;100.00;100641.91;10361994;28;20045;-78
2022/10/20 21:34:57;;;;;;;45.28;24.98;;;;;;;11.01;100.00;100652.97;10362625;28;20061;-78
2022/10/20 21:39:57;;;;;;;34.88;23.77;;;;;;;11.12;100.00;100656.03;10363178;28;20044;-78
2022/10/20 21:44:57;;;;;;;55.83;25.75;;;;;;;11.23;100.00;100659.09;10358573;28;20109;-78
2022/10/20 21:49:58;;;;;;;38.38;21.60;;;;;;;11.35;100.00;100650.88;10364153;28;20072;-78
2022/10/20 21:54:58;;;;;;;48.80;22.25;;;;;;;11.33;100.00;100656.03;10359449;28;20042;-77
2022/10/20 21:59:59;;;;;;;35.80;23.05;;;;;;;11.43;100.00;100655.56;10361510;28;20058;-80
2022/10/20 22:05:00;;;;;;;36.58;22.02;;;;;;;11.49;100.00;100659.28;10362096;28;20111;-78
2022/10/20 22:10:00;;;;;;;40.67;23.73;;;;;;;11.44;100.00;100659.97;10344514;28;20038;-78
2022/10/20 22:15:01;;;;;;;39.47;24.92;;;;;;;11.57;100.00;100661.41;10343513;28;20041;-78
2022/10/20 22:20:01;;;;;;;43.63;22.02;;;;;;;11.55;100.00;100655.19;10360546;28;20032;-78
2022/10/20 22:25:02;;;;;;;39.08;24.23;;;;;;;11.54;100.00;100662.97;10359312;28;20037;-78
2022/10/20 22:30:03;;;;;;;48.83;20.85;;;;;;;11.63;100.00;100646.75;10360008;28;20049;-79
2022/10/20 22:35:04;;;;;;;39.47;25.35;;;;;;;11.71;100.00;100622.59;10361111;28;20064;-81
2022/10/20 22:40:05;;;;;;;37.22;24.98;;;;;;;11.80;100.00;100610.69;10361049;28;20034;-80